| time (UTC) | temp C | wind direction | speed KPH | gust KPH | rain 1hr cm | rain 24hr cm | rain mn cm | humidity % | barometer mb |
| 20260507170503 | 18 | 123 | 1.6 | 9.7 | 0.00 | 0.10 | 0.10 | 70 | 1009.0 |
| 20260507170003 | 18 | 100 | 1.6 | 8.0 | 0.00 | 0.10 | 0.10 | 70 | 1008.9 |
| 20260507165503 | 18 | 123 | 3.2 | 11.3 | 0.00 | 0.10 | 0.10 | 69 | 1009.0 |
| 20260507165003 | 18 | 103 | 1.6 | 3.2 | 0.00 | 0.10 | 0.10 | 69 | 1009.1 |
| 20260507164503 | 18 | 117 | 3.2 | 9.7 | 0.00 | 0.10 | 0.10 | 69 | 1009.3 |
| 20260507164003 | 18 | 146 | 1.6 | 11.3 | 0.00 | 0.10 | 0.10 | 68 | 1009.3 |
| 20260507163503 | 18 | 98 | 3.2 | 9.7 | 0.00 | 0.10 | 0.10 | 68 | 1009.2 |
| 20260507163003 | 18 | 104 | 3.2 | 9.7 | 0.00 | 0.10 | 0.10 | 67 | 1009.3 |
| 20260507162503 | 19 | 130 | 3.2 | 16.1 | 0.00 | 0.10 | 0.10 | 67 | 1009.4 |
| 20260507162003 | 19 | 118 | 1.6 | 8.0 | 0.00 | 0.10 | 0.10 | 67 | 1009.4 |
| 20260507161503 | 19 | 138 | 3.2 | 11.3 | 0.00 | 0.10 | 0.10 | 66 | 1009.2 |
| 20260507161003 | 19 | 135 | 3.2 | 9.7 | 0.00 | 0.10 | 0.10 | 66 | 1009.1 |
| 20260507160504 | 19 | 134 | 4.8 | 14.5 | 0.00 | 0.10 | 0.10 | 66 | 1009.0 |
| 20260507160003 | 19 | 138 | 4.8 | 20.9 | 0.00 | 0.10 | 0.10 | 65 | 1009.0 |
| 20260507155503 | 20 | 125 | 6.4 | 19.3 | 0.00 | 0.10 | 0.10 | 64 | 1009.1 |
| 20260507155003 | 20 | 83 | 3.2 | 9.7 | 0.00 | 0.10 | 0.10 | 65 | 1009.1 |
| 20260507154503 | 20 | 98 | 4.8 | 14.5 | 0.00 | 0.10 | 0.10 | 64 | 1009.0 |
| 20260507154003 | 20 | 120 | 4.8 | 17.7 | 0.00 | 0.10 | 0.10 | 64 | 1009.1 |
| 20260507153504 | 20 | 138 | 4.8 | 14.5 | 0.00 | 0.10 | 0.10 | 65 | 1009.2 |
| 20260507153003 | 20 | 115 | 3.2 | 11.3 | 0.00 | 0.10 | 0.10 | 64 | 1009.2 |
| 20260507152503 | 20 | 123 | 4.8 | 16.1 | 0.00 | 0.10 | 0.10 | 64 | 1009.3 |
| 20260507152003 | 20 | 124 | 3.2 | 14.5 | 0.00 | 0.10 | 0.10 | 63 | 1009.3 |
| 20260507151503 | 20 | 120 | 4.8 | 16.1 | 0.00 | 0.10 | 0.10 | 63 | 1009.4 |
| 20260507151003 | 20 | 131 | 3.2 | 14.5 | 0.00 | 0.10 | 0.10 | 62 | 1009.4 |
| 20260507150503 | 20 | 138 | 4.8 | 14.5 | 0.00 | 0.10 | 0.10 | 62 | 1009.4 |
| 20260507150003 | 20 | 129 | 4.8 | 17.7 | 0.00 | 0.10 | 0.10 | 63 | 1009.5 |
| 20260507145503 | 20 | 136 | 4.8 | 14.5 | 0.00 | 0.10 | 0.10 | 62 | 1009.6 |
| 20260507145003 | 20 | 132 | 3.2 | 12.9 | 0.00 | 0.10 | 0.10 | 63 | 1009.6 |
| 20260507144503 | 20 | 129 | 4.8 | 16.1 | 0.00 | 0.10 | 0.10 | 63 | 1009.6 |
| 20260507144003 | 20 | 137 | 4.8 | 14.5 | 0.00 | 0.10 | 0.10 | 63 | 1009.5 |
| 20260507143503 | 20 | 153 | 3.2 | 14.5 | 0.00 | 0.10 | 0.10 | 63 | 1009.5 |
| 20260507143003 | 20 | 134 | 4.8 | 16.1 | 0.00 | 0.10 | 0.10 | 64 | 1009.6 |
| 20260507142503 | 20 | 139 | 4.8 | 14.5 | 0.00 | 0.10 | 0.10 | 64 | 1009.6 |
| 20260507142003 | 20 | 134 | 3.2 | 11.3 | 0.00 | 0.10 | 0.10 | 64 | 1009.7 |
| 20260507141503 | 20 | 135 | 3.2 | 12.9 | 0.00 | 0.10 | 0.10 | 65 | 1009.8 |
| 20260507141003 | 20 | 131 | 3.2 | 12.9 | 0.00 | 0.10 | 0.10 | 65 | 1009.9 |
| 20260507140503 | 20 | 145 | 3.2 | 11.3 | 0.00 | 0.10 | 0.10 | 66 | 1010.0 |
| 20260507140003 | 20 | 138 | 4.8 | 14.5 | 0.00 | 0.10 | 0.10 | 66 | 1010.0 |
| 20260507135503 | 21 | 137 | 3.2 | 17.7 | 0.00 | 0.10 | 0.10 | 66 | 1010.0 |
| 20260507135003 | 21 | 153 | 1.6 | 6.4 | 0.00 | 0.10 | 0.10 | 67 | 1009.9 |
| 20260507134503 | 21 | 137 | 1.6 | 9.7 | 0.00 | 0.10 | 0.10 | 68 | 1010.0 |
| 20260507134003 | 20 | 155 | 3.2 | 9.7 | 0.00 | 0.10 | 0.10 | 68 | 1009.9 |
| 20260507133503 | 20 | 149 | 4.8 | 14.5 | 0.00 | 0.10 | 0.10 | 68 | 1010.1 |
| 20260507133003 | 20 | 152 | 3.2 | 11.3 | 0.00 | 0.10 | 0.10 | 69 | 1010.0 |
| 20260507132503 | 20 | 147 | 4.8 | 12.9 | 0.00 | 0.10 | 0.10 | 69 | 1009.9 |
| 20260507132003 | 20 | 144 | 6.4 | 14.5 | 0.00 | 0.10 | 0.10 | 69 | 1010.1 |
| 20260507131503 | 20 | 146 | 4.8 | 12.9 | 0.00 | 0.10 | 0.10 | 70 | 1010.2 |
| 20260507131003 | 19 | 150 | 9.7 | 17.7 | 0.00 | 0.10 | 0.10 | 70 | 1010.2 |
| 20260507130503 | 19 | 142 | 9.7 | 17.7 | 0.00 | 0.10 | 0.10 | 70 | 1010.3 |
| 20260507130003 | 20 | 160 | 6.4 | 16.1 | 0.00 | 0.10 | 0.10 | 71 | 1010.2 |
| 20260507125503 | 19 | 163 | 6.4 | 17.7 | 0.00 | 0.10 | 0.10 | 71 | 1010.3 |
| 20260507125003 | 19 | 151 | 8.0 | 19.3 | 0.00 | 0.10 | 0.10 | 71 | 1010.3 |
| 20260507124503 | 19 | 145 | 9.7 | 17.7 | 0.00 | 0.10 | 0.10 | 71 | 1010.4 |
| 20260507124003 | 19 | 149 | 8.0 | 19.3 | 0.00 | 0.10 | 0.10 | 71 | 1010.4 |
| 20260507123503 | 19 | 150 | 6.4 | 12.9 | 0.00 | 0.10 | 0.10 | 71 | 1010.5 |
| 20260507123003 | 19 | 143 | 6.4 | 14.5 | 0.00 | 0.10 | 0.10 | 71 | 1010.6 |
| 20260507122503 | 19 | 149 | 6.4 | 17.7 | 0.00 | 0.10 | 0.10 | 71 | 1010.6 |
| 20260507122004 | 19 | 144 | 8.0 | 17.7 | 0.00 | 0.10 | 0.10 | 71 | 1010.4 |
| 20260507121503 | 19 | 153 | 8.0 | 19.3 | 0.00 | 0.10 | 0.10 | 71 | 1010.6 |
| 20260507121003 | 19 | 162 | 6.4 | 12.9 | 0.00 | 0.10 | 0.10 | 71 | 1010.5 |
| 20260507120503 | 18 | 151 | 9.7 | 17.7 | 0.00 | 0.10 | 0.10 | 71 | 1010.6 |
| 20260507120004 | 19 | 143 | 11.3 | 20.9 | 0.00 | 0.10 | 0.10 | 71 | 1010.6 |
| 20260507115503 | 19 | 141 | 8.0 | 20.9 | 0.00 | 0.10 | 0.10 | 71 | 1010.7 |
| 20260507115003 | 20 | 160 | 4.8 | 14.5 | 0.00 | 0.10 | 0.10 | 71 | 1011.0 |
| 20260507114503 | 19 | 160 | 6.4 | 12.9 | 0.00 | 0.10 | 0.10 | 71 | 1011.1 |
| 20260507114003 | 19 | 153 | 6.4 | 17.7 | 0.00 | 0.10 | 0.10 | 72 | 1011.0 |
| 20260507113503 | 19 | 161 | 6.4 | 17.7 | 0.00 | 0.10 | 0.10 | 72 | 1011.1 |
| 20260507113003 | 19 | 168 | 3.2 | 9.7 | 0.00 | 0.10 | 0.10 | 72 | 1010.9 |
| 20260507112503 | 19 | 156 | 8.0 | 19.3 | 0.00 | 0.10 | 0.10 | 72 | 1010.9 |
| 20260507112003 | 19 | 152 | 8.0 | 17.7 | 0.00 | 0.10 | 0.10 | 72 | 1010.9 |
| 20260507111504 | 19 | 166 | 6.4 | 17.7 | 0.00 | 0.10 | 0.10 | 72 | 1011.0 |
| 20260507111003 | 19 | 155 | 3.2 | 11.3 | 0.00 | 0.10 | 0.10 | 72 | 1011.2 |
| 20260507110503 | 18 | 170 | 3.2 | 14.5 | 0.00 | 0.10 | 0.10 | 71 | 1011.1 |
| 20260507110003 | 18 | 144 | 3.2 | 17.7 | 0.00 | 0.10 | 0.10 | 72 | 1011.1 |
| 20260507105503 | 18 | 145 | 6.4 | 16.1 | 0.00 | 0.10 | 0.10 | 72 | 1011.2 |
| 20260507105003 | 18 | 166 | 3.2 | 9.7 | 0.00 | 0.10 | 0.10 | 72 | 1011.2 |
| 20260507104504 | 18 | 147 | 8.0 | 17.7 | 0.00 | 0.10 | 0.10 | 72 | 1011.2 |
| 20260507104003 | 18 | 145 | 6.4 | 17.7 | 0.00 | 0.10 | 0.10 | 72 | 1011.2 |
| 20260507103503 | 18 | 145 | 8.0 | 20.9 | 0.00 | 0.10 | 0.10 | 72 | 1011.1 |
| 20260507103003 | 18 | 145 | 4.8 | 16.1 | 0.00 | 0.10 | 0.10 | 72 | 1011.2 |
| 20260507102503 | 18 | 143 | 4.8 | 17.7 | 0.00 | 0.10 | 0.10 | 72 | 1011.3 |
| 20260507102003 | 18 | 139 | 4.8 | 16.1 | 0.00 | 0.10 | 0.10 | 72 | 1011.2 |
| 20260507101503 | 18 | 152 | 4.8 | 14.5 | 0.00 | 0.10 | 0.10 | 72 | 1011.1 |
| 20260507101003 | 18 | 139 | 4.8 | 12.9 | 0.00 | 0.10 | 0.10 | 72 | 1011.1 |
| 20260507100503 | 18 | 153 | 6.4 | 16.1 | 0.00 | 0.10 | 0.10 | 72 | 1011.2 |
| 20260507100003 | 18 | 155 | 6.4 | 12.9 | 0.00 | 0.10 | 0.10 | 72 | 1011.3 |
| 20260507095503 | 17 | 142 | 8.0 | 19.3 | 0.00 | 0.10 | 0.10 | 72 | 1011.3 |
| 20260507095003 | 17 | 127 | 6.4 | 19.3 | 0.00 | 0.10 | 0.10 | 72 | 1011.2 |
| 20260507094503 | 17 | 147 | 11.3 | 24.1 | 0.00 | 0.10 | 0.10 | 72 | 1011.2 |
| 20260507094003 | 17 | 148 | 9.7 | 25.7 | 0.00 | 0.10 | 0.10 | 72 | 1011.2 |
| 20260507093503 | 18 | 143 | 8.0 | 20.9 | 0.00 | 0.10 | 0.10 | 72 | 1011.1 |
| 20260507093003 | 18 | 147 | 6.4 | 19.3 | 0.00 | 0.10 | 0.10 | 72 | 1011.2 |
| 20260507092503 | 18 | 144 | 9.7 | 27.4 | 0.00 | 0.10 | 0.10 | 72 | 1011.2 |
| 20260507092003 | 18 | 138 | 8.0 | 22.5 | 0.00 | 0.10 | 0.10 | 73 | 1011.1 |
| 20260507091503 | 17 | 147 | 9.7 | 27.4 | 0.00 | 0.10 | 0.10 | 73 | 1010.9 |
| 20260507091003 | 17 | 134 | 9.7 | 24.1 | 0.00 | 0.10 | 0.10 | 73 | 1010.7 |
| 20260507090503 | 17 | 141 | 6.4 | 20.9 | 0.00 | 0.10 | 0.10 | 73 | 1010.9 |
| 20260507090004 | 17 | 130 | 6.4 | 22.5 | 0.00 | 0.10 | 0.10 | 73 | 1010.9 |
| 20260507085503 | 17 | 129 | 9.7 | 22.5 | 0.00 | 0.10 | 0.10 | 73 | 1010.7 |
| 20260507085003 | 17 | 136 | 6.4 | 22.5 | 0.00 | 0.10 | 0.10 | 73 | 1010.6 |
| 20260507084503 | 17 | 121 | 6.4 | 22.5 | 0.00 | 0.10 | 0.10 | 73 | 1010.5 |
| 20260507084003 | 17 | 129 | 11.3 | 29.0 | 0.00 | 0.10 | 0.10 | 73 | 1010.5 |
| 20260507083503 | 17 | 134 | 8.0 | 20.9 | 0.00 | 0.10 | 0.10 | 73 | 1010.2 |
| 20260507083003 | 17 | 127 | 11.3 | 29.0 | 0.00 | 0.10 | 0.10 | 73 | 1010.1 |
| 20260507082503 | 17 | 128 | 9.7 | 20.9 | 0.00 | 0.10 | 0.10 | 73 | 1010.2 |
| 20260507082003 | 17 | 121 | 12.9 | 27.4 | 0.00 | 0.10 | 0.10 | 73 | 1010.2 |
| 20260507081503 | 17 | 115 | 8.0 | 20.9 | 0.00 | 0.10 | 0.10 | 74 | 1010.4 |
| 20260507081003 | 17 | 87 | 6.4 | 22.5 | 0.00 | 0.10 | 0.10 | 74 | 1010.5 |
| 20260507080503 | 17 | 91 | 9.7 | 29.0 | 0.00 | 0.10 | 0.10 | 74 | 1010.3 |
| 20260507080003 | 17 | 107 | 9.7 | 25.7 | 0.00 | 0.10 | 0.10 | 74 | 1010.3 |
| 20260507075503 | 17 | 123 | 8.0 | 19.3 | 0.00 | 0.10 | 0.10 | 74 | 1010.5 |
| 20260507075003 | 16 | 135 | 8.0 | 20.9 | 0.00 | 0.10 | 0.10 | 74 | 1010.8 |
| 20260507074503 | 16 | 126 | 6.4 | 22.5 | 0.00 | 0.10 | 0.10 | 74 | 1010.7 |
| 20260507074003 | 17 | 74 | 6.4 | 16.1 | 0.00 | 0.10 | 0.10 | 74 | 1010.7 |
| 20260507073503 | 17 | 106 | 8.0 | 20.9 | 0.00 | 0.10 | 0.10 | 74 | 1011.0 |
| 20260507073003 | 16 | 87 | 8.0 | 19.3 | 0.00 | 0.10 | 0.10 | 74 | 1011.0 |
| 20260507072503 | 16 | 69 | 8.0 | 20.9 | 0.00 | 0.10 | 0.10 | 74 | 1011.0 |
| 20260507072003 | 16 | 79 | 8.0 | 19.3 | 0.00 | 0.10 | 0.10 | 74 | 1011.2 |
| 20260507071503 | 17 | 73 | 8.0 | 19.3 | 0.00 | 0.10 | 0.10 | 74 | 1011.4 |
| 20260507071003 | 16 | 78 | 8.0 | 24.1 | 0.00 | 0.10 | 0.10 | 74 | 1011.6 |
| 20260507070503 | 16 | 56 | 6.4 | 14.5 | 0.00 | 0.10 | 0.10 | 75 | 1011.7 |
| 20260507070005 | 16 | 102 | 3.2 | 9.7 | 0.00 | 0.10 | 0.10 | 75 | 1012.1 |
| 20260507065503 | 16 | 119 | 3.2 | 8.0 | 0.00 | 0.10 | 0.10 | 75 | 1012.2 |
| 20260507065003 | 16 | 87 | 4.8 | 19.3 | 0.00 | 0.10 | 0.10 | 75 | 1011.8 |
| 20260507064503 | 16 | 66 | 4.8 | 12.9 | 0.00 | 0.10 | 0.10 | 74 | 1011.9 |
| 20260507064003 | 16 | 99 | 3.2 | 8.0 | 0.00 | 0.10 | 0.10 | 74 | 1012.1 |
| 20260507063503 | 16 | 63 | 4.8 | 16.1 | 0.00 | 0.10 | 0.10 | 74 | 1011.9 |
| 20260507063003 | 16 | 55 | 4.8 | 11.3 | 0.00 | 0.10 | 0.10 | 74 | 1011.6 |
| 20260507062503 | 16 | 49 | 4.8 | 8.0 | 0.00 | 0.10 | 0.10 | 74 | 1011.7 |
| 20260507062003 | 16 | 59 | 4.8 | 8.0 | 0.00 | 0.10 | 0.10 | 74 | 1011.8 |
| 20260507061503 | 16 | 52 | 6.4 | 11.3 | 0.00 | 0.10 | 0.10 | 74 | 1011.7 |
| 20260507061003 | 16 | 42 | 8.0 | 14.5 | 0.00 | 0.10 | 0.10 | 74 | 1011.6 |
| 20260507060503 | 16 | 40 | 6.4 | 11.3 | 0.00 | 0.10 | 0.10 | 74 | 1011.4 |
| 20260507060003 | 16 | 43 | 6.4 | 9.7 | 0.00 | 0.10 | 0.10 | 74 | 1011.6 |
| 20260507055503 | 16 | 31 | 8.0 | 14.5 | 0.00 | 0.10 | 0.10 | 74 | 1011.5 |
| 20260507055003 | 16 | 31 | 6.4 | 11.3 | 0.00 | 0.10 | 0.10 | 74 | 1011.4 |
| 20260507054503 | 16 | 39 | 6.4 | 14.5 | 0.00 | 0.10 | 0.10 | 74 | 1011.5 |
| 20260507054003 | 16 | 40 | 4.8 | 9.7 | 0.00 | 0.10 | 0.10 | 74 | 1011.7 |
| 20260507053503 | 16 | 47 | 4.8 | 9.7 | 0.00 | 0.10 | 0.10 | 75 | 1011.6 |
| 20260507053003 | 16 | 49 | 6.4 | 17.7 | 0.00 | 0.10 | 0.10 | 74 | 1011.5 |
| 20260507052503 | 16 | 51 | 8.0 | 16.1 | 0.00 | 0.10 | 0.10 | 74 | 1011.5 |
| 20260507052003 | 16 | 71 | 6.4 | 12.9 | 0.00 | 0.10 | 0.10 | 74 | 1011.4 |
| 20260507051503 | 16 | 71 | 3.2 | 12.9 | 0.00 | 0.10 | 0.10 | 74 | 1011.4 |
| 20260507051003 | 16 | 78 | 4.8 | 14.5 | 0.00 | 0.10 | 0.10 | 75 | 1011.4 |
| 20260507050503 | 16 | 64 | 3.2 | 11.3 | 0.00 | 0.10 | 0.10 | 74 | 1011.3 |
| 20260507050004 | 16 | 83 | 3.2 | 12.9 | 0.00 | 0.10 | 0.10 | 74 | 1011.1 |
| 20260507045503 | 16 | 100 | 3.2 | 14.5 | 0.00 | 0.10 | 0.10 | 74 | 1010.9 |
| 20260507045003 | 16 | 71 | 4.8 | 14.5 | 0.00 | 0.10 | 0.10 | 74 | 1010.5 |
| 20260507044503 | 16 | 52 | 9.7 | 17.7 | 0.00 | 0.10 | 0.10 | 75 | 1010.0 |
| 20260507044003 | 15 | 55 | 14.5 | 25.7 | 0.00 | 0.10 | 0.10 | 74 | 1009.8 |
| 20260507043503 | 16 | 55 | 11.3 | 22.5 | 0.00 | 0.10 | 0.10 | 74 | 1009.6 |
| 20260507043003 | 16 | 73 | 12.9 | 27.4 | 0.00 | 0.10 | 0.10 | 74 | 1009.6 |
| 20260507042503 | 16 | 59 | 12.9 | 22.5 | 0.00 | 0.10 | 0.10 | 74 | 1009.6 |
| 20260507042003 | 16 | 52 | 17.7 | 27.4 | 0.00 | 0.10 | 0.10 | 74 | 1009.8 |
| 20260507041503 | 16 | 58 | 14.5 | 24.1 | 0.00 | 0.10 | 0.10 | 74 | 1010.0 |
| 20260507041003 | 16 | 57 | 14.5 | 20.9 | 0.00 | 0.10 | 0.10 | 74 | 1010.2 |
| 20260507040503 | 16 | 54 | 12.9 | 20.9 | 0.05 | 0.10 | 0.10 | 74 | 1010.3 |
| 20260507040003 | 16 | 53 | 9.7 | 17.7 | 0.05 | 0.10 | 0.10 | 74 | 1010.3 |
| 20260507035503 | 16 | 55 | 8.0 | 16.1 | 0.05 | 0.10 | 0.10 | 74 | 1010.6 |
| 20260507035003 | 16 | 58 | 8.0 | 17.7 | 0.05 | 0.10 | 0.10 | 74 | 1010.4 |
| 20260507034503 | 16 | 57 | 8.0 | 17.7 | 0.05 | 0.10 | 0.10 | 74 | 1010.5 |
| 20260507034003 | 16 | 56 | 9.7 | 17.7 | 0.05 | 0.10 | 0.10 | 74 | 1010.5 |
| 20260507033503 | 16 | 52 | 9.7 | 20.9 | 0.05 | 0.10 | 0.10 | 74 | 1010.3 |
| 20260507033003 | 16 | 48 | 9.7 | 20.9 | 0.05 | 0.10 | 0.10 | 74 | 1010.2 |
| 20260507032503 | 16 | 50 | 6.4 | 14.5 | 0.05 | 0.10 | 0.10 | 74 | 1010.3 |
| 20260507032003 | 16 | 59 | 8.0 | 14.5 | 0.05 | 0.10 | 0.10 | 74 | 1010.3 |
| 20260507031503 | 16 | 51 | 9.7 | 17.7 | 0.05 | 0.10 | 0.10 | 74 | 1010.2 |
| 20260507031003 | 16 | 56 | 8.0 | 12.9 | 0.05 | 0.10 | 0.10 | 74 | 1010.3 |
| 20260507030503 | 16 | 57 | 6.4 | 9.7 | 0.00 | 0.05 | 0.05 | 74 | 1010.6 |
| 20260507030003 | 16 | 61 | 1.6 | 8.0 | 0.00 | 0.05 | 0.05 | 74 | 1010.6 |
| 20260507025503 | 16 | 60 | 3.2 | 6.4 | 0.00 | 0.05 | 0.05 | 74 | 1010.6 |
| 20260507025003 | 16 | 60 | 1.6 | 8.0 | 0.00 | 0.05 | 0.05 | 74 | 1010.6 |
| 20260507024503 | 16 | 82 | 1.6 | 6.4 | 0.00 | 0.05 | 0.05 | 74 | 1010.6 |
| 20260507024003 | 16 | 77 | 1.6 | 6.4 | 0.00 | 0.05 | 0.05 | 74 | 1010.5 |
| 20260507023503 | 16 | 86 | 3.2 | 11.3 | 0.00 | 0.05 | 0.05 | 74 | 1010.4 |
| 20260507023003 | 16 | 93 | 3.2 | 11.3 | 0.00 | 0.05 | 0.05 | 74 | 1010.3 |
| 20260507022503 | 16 | 94 | 3.2 | 16.1 | 0.00 | 0.05 | 0.05 | 74 | 1010.5 |
| 20260507022003 | 16 | 124 | 3.2 | 14.5 | 0.00 | 0.05 | 0.05 | 74 | 1010.4 |
| 20260507021503 | 16 | 118 | 4.8 | 12.9 | 0.00 | 0.05 | 0.05 | 74 | 1010.4 |
| 20260507021003 | 16 | 116 | 1.6 | 9.7 | 0.00 | 0.05 | 0.05 | 74 | 1010.3 |
| 20260507020503 | 16 | 64 | 3.2 | 11.3 | 0.05 | 0.05 | 0.05 | 74 | 1010.2 |
| 20260507020003 | 16 | 93 | 4.8 | 12.9 | 0.05 | 0.05 | 0.05 | 74 | 1009.9 |
| 20260507015503 | 16 | 68 | 3.2 | 9.7 | 0.05 | 0.05 | 0.05 | 74 | 1009.7 |
| 20260507015003 | 16 | 70 | 8.0 | 16.1 | 0.05 | 0.05 | 0.05 | 74 | 1009.5 |
| 20260507014503 | 16 | 67 | 6.4 | 16.1 | 0.05 | 0.05 | 0.05 | 74 | 1009.4 |
| 20260507014003 | 16 | 62 | 6.4 | 17.7 | 0.05 | 0.05 | 0.05 | 74 | 1009.4 |
| 20260507013503 | 16 | 59 | 9.7 | 22.5 | 0.05 | 0.05 | 0.05 | 73 | 1009.3 |
| 20260507013003 | 16 | 30 | 17.7 | 25.7 | 0.05 | 0.05 | 0.05 | 73 | 1008.8 |
| 20260507012503 | 16 | 24 | 14.5 | 27.4 | 0.05 | 0.05 | 0.05 | 73 | 1008.8 |
| 20260507012003 | 16 | 26 | 6.4 | 11.3 | 0.05 | 0.05 | 0.05 | 73 | 1010.0 |
| 20260507011503 | 16 | 52 | 0.0 | 3.2 | 0.05 | 0.05 | 0.05 | 73 | 1010.5 |
| 20260507011003 | 16 | 74 | 0.0 | 3.2 | 0.05 | 0.05 | 0.05 | 73 | 1010.5 |
| 20260507010503 | 16 | 55 | 0.0 | 3.2 | 0.00 | 0.00 | 0.00 | 73 | 1010.2 |
| 20260507010003 | 16 | 59 | 1.6 | 3.2 | 0.00 | 0.00 | 0.00 | 73 | 1010.1 |
| 20260507005503 | 16 | 115 | 1.6 | 3.2 | 0.00 | 0.00 | 0.00 | 73 | 1010.1 |
| 20260507005003 | 16 | 66 | 1.6 | 11.3 | 0.00 | 0.00 | 0.00 | 73 | 1009.9 |
| 20260507004503 | 16 | 69 | 4.8 | 9.7 | 0.00 | 0.00 | 0.00 | 73 | 1009.7 |
| 20260507004003 | 16 | 143 | 4.8 | 14.5 | 0.00 | 0.00 | 0.00 | 73 | 1010.1 |
| 20260507003503 | 16 | 128 | 1.6 | 6.4 | 0.00 | 0.00 | 0.00 | 73 | 1010.0 |
| 20260507003003 | 16 | 95 | 1.6 | 6.4 | 0.00 | 0.00 | 0.00 | 73 | 1009.7 |
| 20260507002503 | 16 | 108 | 1.6 | 11.3 | 0.00 | 0.00 | 0.00 | 73 | 1009.6 |
| 20260507002003 | 16 | 93 | 1.6 | 8.0 | 0.00 | 0.00 | 0.00 | 73 | 1009.7 |
| 20260507001503 | 16 | 99 | 1.6 | 6.4 | 0.00 | 0.00 | 0.00 | 73 | 1009.6 |
| 20260507001003 | 16 | 98 | 1.6 | 6.4 | 0.00 | 0.00 | 0.00 | 73 | 1009.6 |
| 20260507000503 | 16 | 83 | 1.6 | 8.0 | 0.00 | 0.00 | 0.00 | 73 | 1009.7 |
| 20260507000003 | 16 | 126 | 1.6 | 9.7 | 0.00 | 0.00 | 0.00 | 73 | 1009.8 |
| 20260506235503 | 16 | 108 | 3.2 | 9.7 | 0.00 | 0.00 | 0.00 | 73 | 1009.7 |
| 20260506235003 | 16 | 117 | 3.2 | 8.0 | 0.00 | 0.00 | 0.00 | 73 | 1009.8 |
| 20260506234503 | 16 | 123 | 4.8 | 11.3 | 0.00 | 0.00 | 0.00 | 73 | 1009.9 |
| 20260506234003 | 16 | 135 | 3.2 | 9.7 | 0.00 | 0.00 | 0.00 | 73 | 1009.9 |
| 20260506233503 | 16 | 119 | 3.2 | 8.0 | 0.00 | 0.00 | 0.00 | 73 | 1009.8 |
| 20260506233003 | 16 | 140 | 4.8 | 11.3 | 0.00 | 0.00 | 0.00 | 73 | 1009.8 |
| 20260506232503 | 16 | 130 | 4.8 | 11.3 | 0.00 | 0.00 | 0.00 | 73 | 1010.0 |
| 20260506232003 | 16 | 100 | 1.6 | 9.7 | 0.00 | 0.00 | 0.00 | 73 | 1009.8 |
| 20260506231503 | 16 | 74 | 3.2 | 9.7 | 0.00 | 0.00 | 0.00 | 72 | 1009.6 |
| 20260506231003 | 16 | 123 | 1.6 | 8.0 | 0.00 | 0.00 | 0.00 | 72 | 1009.8 |
| 20260506230503 | 16 | 106 | 3.2 | 9.7 | 0.00 | 0.00 | 0.00 | 72 | 1009.9 |
| 20260506230003 | 17 | 71 | 4.8 | 14.5 | 0.00 | 0.00 | 0.00 | 72 | 1009.6 |
| 20260506225503 | 17 | 87 | 3.2 | 12.9 | 0.00 | 0.00 | 0.00 | 72 | 1009.8 |
| 20260506225003 | 17 | 114 | 3.2 | 9.7 | 0.00 | 0.00 | 0.00 | 72 | 1010.2 |
| 20260506224503 | 17 | 125 | 3.2 | 12.9 | 0.00 | 0.00 | 0.00 | 72 | 1010.3 |
| 20260506224003 | 17 | 122 | 3.2 | 9.7 | 0.00 | 0.00 | 0.00 | 72 | 1010.3 |
| 20260506223503 | 17 | 116 | 1.6 | 6.4 | 0.00 | 0.00 | 0.00 | 72 | 1010.2 |
| 20260506223003 | 17 | 127 | 3.2 | 8.0 | 0.00 | 0.00 | 0.00 | 72 | 1010.2 |
| 20260506222503 | 17 | 130 | 1.6 | 9.7 | 0.00 | 0.00 | 0.00 | 72 | 1010.2 |
| 20260506222003 | 17 | 139 | 3.2 | 14.5 | 0.00 | 0.00 | 0.00 | 72 | 1010.0 |
| 20260506221504 | 17 | 134 | 3.2 | 12.9 | 0.00 | 0.00 | 0.00 | 72 | 1009.9 |
| 20260506221003 | 17 | 130 | 4.8 | 16.1 | 0.00 | 0.00 | 0.00 | 72 | 1010.0 |
| 20260506220503 | 17 | 126 | 4.8 | 14.5 | 0.00 | 0.00 | 0.00 | 72 | 1009.9 |
| 20260506220003 | 17 | 136 | 6.4 | 14.5 | 0.00 | 0.00 | 0.00 | 72 | 1009.9 |
| 20260506215503 | 17 | 144 | 4.8 | 16.1 | 0.00 | 0.00 | 0.00 | 72 | 1010.0 |
| 20260506215003 | 17 | 137 | 6.4 | 16.1 | 0.00 | 0.00 | 0.00 | 72 | 1010.0 |
| 20260506214503 | 17 | 146 | 6.4 | 17.7 | 0.00 | 0.00 | 0.00 | 72 | 1009.9 |
| 20260506214003 | 17 | 142 | 4.8 | 16.1 | 0.00 | 0.00 | 0.00 | 72 | 1009.9 |
| 20260506213503 | 17 | 140 | 8.0 | 19.3 | 0.00 | 0.00 | 0.00 | 72 | 1009.9 |
| 20260506213003 | 17 | 138 | 8.0 | 19.3 | 0.00 | 0.00 | 0.00 | 72 | 1009.9 |
| 20260506212503 | 17 | 140 | 8.0 | 24.1 | 0.00 | 0.00 | 0.00 | 72 | 1009.8 |
| 20260506212003 | 17 | 140 | 9.7 | 22.5 | 0.00 | 0.00 | 0.00 | 72 | 1009.9 |
| 20260506211503 | 17 | 150 | 6.4 | 16.1 | 0.00 | 0.00 | 0.00 | 72 | 1010.0 |
| 20260506211003 | 17 | 143 | 8.0 | 20.9 | 0.00 | 0.00 | 0.00 | 72 | 1009.9 |
| 20260506210503 | 17 | 148 | 8.0 | 17.7 | 0.00 | 0.00 | 0.00 | 72 | 1009.9 |
| 20260506210003 | 17 | 140 | 9.7 | 22.5 | 0.00 | 0.00 | 0.00 | 72 | 1010.0 |
| 20260506205503 | 17 | 136 | 8.0 | 22.5 | 0.00 | 0.00 | 0.00 | 72 | 1009.8 |
| 20260506205003 | 17 | 132 | 8.0 | 19.3 | 0.00 | 0.00 | 0.00 | 72 | 1009.9 |
| 20260506204503 | 17 | 138 | 6.4 | 20.9 | 0.00 | 0.00 | 0.00 | 72 | 1009.9 |
| 20260506204003 | 17 | 129 | 8.0 | 16.1 | 0.00 | 0.00 | 0.00 | 72 | 1009.9 |
| 20260506203503 | 17 | 146 | 8.0 | 16.1 | 0.00 | 0.00 | 0.00 | 72 | 1010.0 |
| 20260506203003 | 17 | 139 | 6.4 | 14.5 | 0.00 | 0.00 | 0.00 | 72 | 1010.0 |
| 20260506202503 | 17 | 145 | 8.0 | 19.3 | 0.00 | 0.00 | 0.00 | 72 | 1009.9 |
| 20260506202003 | 17 | 146 | 8.0 | 17.7 | 0.00 | 0.00 | 0.00 | 72 | 1009.9 |
| 20260506201503 | 17 | 144 | 9.7 | 24.1 | 0.00 | 0.00 | 0.00 | 72 | 1009.7 |
| 20260506201003 | 17 | 141 | 6.4 | 16.1 | 0.00 | 0.00 | 0.00 | 72 | 1009.9 |
| 20260506200503 | 17 | 139 | 9.7 | 24.1 | 0.00 | 0.00 | 0.00 | 72 | 1009.8 |
| 20260506200003 | 17 | 143 | 8.0 | 24.1 | 0.00 | 0.00 | 0.00 | 72 | 1009.9 |
| 20260506195503 | 17 | 132 | 8.0 | 19.3 | 0.00 | 0.00 | 0.00 | 72 | 1009.6 |
| 20260506195003 | 17 | 137 | 6.4 | 19.3 | 0.00 | 0.00 | 0.00 | 72 | 1009.6 |
| 20260506194003 | 17 | 130 | 8.0 | 16.1 | 0.00 | 0.00 | 0.00 | 72 | 1009.6 |
| 20260506193503 | 17 | 143 | 4.8 | 12.9 | 0.00 | 0.00 | 0.00 | 72 | 1009.6 |
| 20260506193003 | 17 | 123 | 4.8 | 14.5 | 0.00 | 0.00 | 0.00 | 72 | 1009.6 |
| 20260506192503 | 17 | 130 | 6.4 | 22.5 | 0.00 | 0.00 | 0.00 | 72 | 1009.5 |
| 20260506192003 | 17 | 124 | 6.4 | 19.3 | 0.00 | 0.00 | 0.00 | 72 | 1009.5 |
| 20260506191503 | 17 | 135 | 4.8 | 9.7 | 0.00 | 0.00 | 0.00 | 72 | 1009.6 |
| 20260506191003 | 17 | 125 | 3.2 | 8.0 | 0.00 | 0.00 | 0.00 | 72 | 1009.5 |
| 20260506190503 | 17 | 140 | 4.8 | 14.5 | 0.00 | 0.00 | 0.00 | 72 | 1009.5 |
| 20260506190003 | 17 | 124 | 6.4 | 14.5 | 0.00 | 0.00 | 0.00 | 72 | 1009.4 |
| 20260506185503 | 17 | 126 | 6.4 | 11.3 | 0.00 | 0.00 | 0.00 | 72 | 1009.4 |
| 20260506185003 | 17 | 118 | 4.8 | 16.1 | 0.00 | 0.00 | 0.00 | 72 | 1009.4 |
| 20260506184503 | 17 | 133 | 6.4 | 19.3 | 0.00 | 0.00 | 0.00 | 72 | 1009.3 |
| 20260506184003 | 17 | 126 | 6.4 | 14.5 | 0.00 | 0.00 | 0.00 | 72 | 1009.3 |
| 20260506183503 | 17 | 151 | 6.4 | 14.5 | 0.00 | 0.00 | 0.00 | 72 | 1009.4 |
| 20260506183003 | 17 | 121 | 4.8 | 19.3 | 0.00 | 0.00 | 0.00 | 72 | 1009.4 |
| 20260506182503 | 17 | 121 | 4.8 | 17.7 | 0.00 | 0.00 | 0.00 | 72 | 1009.5 |
| 20260506182003 | 17 | 136 | 9.7 | 20.9 | 0.00 | 0.00 | 0.00 | 72 | 1009.5 |
| 20260506181503 | 17 | 126 | 8.0 | 19.3 | 0.00 | 0.00 | 0.00 | 72 | 1009.6 |
| 20260506181003 | 17 | 119 | 8.0 | 20.9 | 0.00 | 0.00 | 0.00 | 72 | 1009.5 |
| 20260506180503 | 17 | 131 | 6.4 | 14.5 | 0.00 | 0.00 | 0.00 | 72 | 1009.4 |
| 20260506180004 | 17 | 135 | 6.4 | 19.3 | 0.00 | 0.00 | 0.00 | 72 | 1009.6 |
| 20260506175503 | 17 | 131 | 4.8 | 17.7 | 0.00 | 0.00 | 0.00 | 72 | 1009.5 |
| 20260506175003 | 17 | 130 | 6.4 | 16.1 | 0.00 | 0.00 | 0.00 | 72 | 1009.5 |
| 20260506174503 | 17 | 127 | 8.0 | 19.3 | 0.00 | 0.00 | 0.00 | 72 | 1009.4 |
| 20260506174003 | 17 | 135 | 4.8 | 17.7 | 0.00 | 0.00 | 0.00 | 72 | 1009.4 |
| 20260506173503 | 17 | 121 | 6.4 | 20.9 | 0.00 | 0.00 | 0.00 | 72 | 1009.4 |
| 20260506173003 | 17 | 128 | 4.8 | 11.3 | 0.00 | 0.00 | 0.00 | 72 | 1009.5 |
| 20260506172503 | 17 | 145 | 8.0 | 19.3 | 0.00 | 0.00 | 0.00 | 72 | 1009.3 |
| 20260506172003 | 17 | 132 | 4.8 | 14.5 | 0.00 | 0.00 | 0.00 | 72 | 1009.4 |
| 20260506171503 | 17 | 129 | 6.4 | 17.7 | 0.00 | 0.00 | 0.00 | 72 | 1009.2 |
| 20260506171003 | 17 | 117 | 6.4 | 17.7 | 0.00 | 0.00 | 0.00 | 72 | 1009.1 |